createdAt,value
2022-12-29T00:01:44.989Z,79.90
2022-12-29T00:04:17.133Z,79.20
2022-12-29T00:06:44.022Z,79.80
2022-12-29T00:09:13.579Z,79.90
2022-12-29T00:11:40.698Z,79.90
2022-12-29T00:14:29.467Z,79.80
2022-12-29T00:16:56.657Z,79.70
2022-12-29T00:19:43.229Z,79.60
2022-12-29T00:22:32.284Z,79.80
2022-12-29T00:25:17.997Z,79.60
2022-12-29T00:28:07.673Z,79.60
2022-12-29T00:30:55.323Z,79.60
2022-12-29T00:33:46.349Z,79.60
2022-12-29T00:36:36.990Z,79.60
2022-12-29T00:39:31.259Z,79.50
2022-12-29T00:42:22.901Z,79.70
2022-12-29T00:44:49.625Z,79.60
2022-12-29T00:47:16.387Z,79.50
2022-12-29T00:49:46.212Z,79.50
2022-12-29T00:52:14.505Z,79.40
2022-12-29T00:54:45.731Z,79.40
2022-12-29T00:57:13.495Z,79.30
2022-12-29T00:59:42.063Z,79.30
2022-12-29T01:02:10.118Z,79.30
2022-12-29T01:04:37.385Z,79.20
2022-12-29T01:07:04.262Z,79.10
2022-12-29T01:09:50.864Z,79.10
2022-12-29T01:12:17.726Z,79.10
2022-12-29T01:14:45.083Z,79.10
2022-12-29T01:17:12.062Z,79.20
2022-12-29T01:19:38.827Z,79.00
2022-12-29T01:22:05.581Z,79.00
2022-12-29T01:24:32.366Z,78.90
2022-12-29T01:26:59.115Z,78.90
2022-12-29T01:29:25.976Z,79.10
2022-12-29T01:31:52.755Z,79.00
2022-12-29T01:34:19.551Z,79.10
2022-12-29T01:36:46.527Z,79.10
2022-12-29T01:39:13.382Z,79.00
2022-12-29T01:41:42.581Z,79.00
2022-12-29T01:44:55.762Z,78.40
2022-12-29T01:47:29.305Z,79.00
2022-12-29T01:50:02.149Z,79.00
2022-12-29T01:52:34.321Z,79.10
2022-12-29T01:55:04.129Z,79.00
2022-12-29T01:57:37.131Z,79.00
2022-12-29T02:00:13.268Z,79.00
2022-12-29T02:02:47.173Z,79.00
2022-12-29T02:05:29.237Z,79.10
2022-12-29T02:07:56.315Z,79.30
2022-12-29T02:10:27.258Z,79.20
2022-12-29T02:12:55.280Z,79.30
2022-12-29T02:15:40.659Z,78.80
2022-12-29T02:18:49.978Z,79.50
2022-12-29T02:21:57.734Z,79.60
2022-12-29T02:24:58.785Z,79.70
2022-12-29T02:28:15.321Z,79.80
2022-12-29T02:31:15.050Z,79.20
2022-12-29T02:34:17.361Z,79.70
2022-12-29T02:37:10.184Z,79.50
2022-12-29T02:40:02.377Z,79.50
2022-12-29T02:42:38.002Z,79.50
2022-12-29T02:45:20.854Z,79.00
2022-12-29T02:48:16.132Z,79.50
2022-12-29T02:51:24.789Z,79.50
2022-12-29T02:54:26.686Z,79.40
2022-12-29T02:56:53.494Z,79.40
2022-12-29T02:59:21.492Z,79.20
2022-12-29T03:02:33.640Z,79.30
2022-12-29T03:05:16.071Z,78.90
2022-12-29T03:08:29.246Z,79.20
2022-12-29T03:11:33.368Z,78.80
2022-12-29T03:14:48.382Z,78.60
2022-12-29T03:17:30.648Z,78.60
2022-12-29T03:20:09.132Z,78.50
2022-12-29T03:22:43.986Z,78.40
2022-12-29T03:25:24.512Z,78.40
2022-12-29T03:28:08.432Z,78.30
2022-12-29T03:30:37.920Z,78.00
2022-12-29T03:33:09.862Z,78.20
2022-12-29T03:35:41.459Z,78.10
2022-12-29T03:38:18.350Z,78.00
2022-12-29T03:40:51.214Z,77.80
2022-12-29T03:43:19.146Z,77.90
2022-12-29T03:45:45.942Z,77.90
2022-12-29T03:48:12.793Z,78.40
2022-12-29T03:50:39.632Z,77.60
2022-12-29T03:53:06.336Z,77.50
2022-12-29T03:55:33.827Z,77.60
2022-12-29T03:58:00.583Z,77.50
2022-12-29T04:00:27.336Z,77.40
2022-12-29T04:02:54.306Z,77.10
2022-12-29T04:05:21.896Z,77.10
2022-12-29T04:07:48.633Z,77.00
2022-12-29T04:10:15.574Z,76.90
2022-12-29T04:12:43.260Z,76.90
2022-12-29T04:15:10.912Z,77.00
2022-12-29T04:17:37.795Z,76.80
2022-12-29T04:20:24.131Z,76.90
2022-12-29T04:22:59.540Z,76.80
2022-12-29T04:25:26.237Z,76.80
2022-12-29T04:27:52.971Z,76.80
2022-12-29T04:30:19.913Z,76.60
2022-12-29T04:32:46.656Z,76.60
2022-12-29T04:35:13.397Z,76.50
2022-12-29T04:37:40.131Z,76.50
2022-12-29T04:40:08.060Z,76.30
2022-12-29T04:42:34.818Z,76.30
2022-12-29T04:45:01.595Z,76.30
2022-12-29T04:47:28.351Z,76.20
2022-12-29T04:49:55.081Z,76.10
2022-12-29T04:52:21.809Z,76.10
2022-12-29T04:54:48.535Z,76.00
2022-12-29T04:57:15.256Z,76.00
2022-12-29T04:59:42.740Z,75.90
2022-12-29T05:02:09.627Z,76.00
2022-12-29T05:04:36.451Z,75.90
2022-12-29T05:07:03.254Z,75.90
2022-12-29T05:09:30.889Z,76.50
2022-12-29T05:11:57.634Z,75.90
2022-12-29T05:14:24.573Z,75.70
2022-12-29T05:16:51.438Z,75.10
2022-12-29T05:19:18.404Z,75.70
2022-12-29T05:21:45.411Z,75.90
2022-12-29T05:24:12.155Z,75.70
2022-12-29T05:26:38.953Z,75.70
2022-12-29T05:29:05.721Z,75.70
2022-12-29T05:31:32.531Z,75.70
2022-12-29T05:36:26.438Z,75.10
2022-12-29T05:38:53.186Z,75.90
2022-12-29T05:43:47.460Z,75.10
2022-12-29T05:46:14.269Z,75.80
2022-12-29T05:48:41.304Z,76.00
2022-12-29T05:51:08.057Z,75.90
2022-12-29T05:53:34.803Z,75.90
2022-12-29T05:56:01.510Z,75.90
2022-12-29T05:58:28.238Z,75.90
2022-12-29T06:00:55.048Z,76.00
2022-12-29T06:03:21.892Z,76.00
2022-12-29T06:05:49.713Z,76.00
2022-12-29T06:08:16.647Z,75.90
2022-12-29T06:10:43.410Z,75.90
2022-12-29T06:13:10.316Z,76.00
2022-12-29T06:15:37.396Z,75.90
2022-12-29T06:18:04.143Z,75.90
2022-12-29T06:20:30.942Z,75.90
2022-12-29T06:22:57.646Z,75.90
2022-12-29T06:25:24.488Z,75.80
2022-12-29T06:27:51.367Z,75.70
2022-12-29T06:30:18.175Z,75.00
2022-12-29T06:32:45.561Z,75.70
2022-12-29T06:35:12.324Z,75.60
2022-12-29T06:37:39.049Z,75.60
2022-12-29T06:40:06.740Z,74.90
2022-12-29T06:42:33.941Z,75.50
2022-12-29T06:45:01.626Z,75.50
2022-12-29T06:47:28.470Z,75.50
2022-12-29T06:49:55.216Z,75.40
2022-12-29T06:52:21.963Z,75.40
2022-12-29T06:54:48.662Z,75.30
2022-12-29T06:57:15.425Z,75.30
2022-12-29T06:59:42.437Z,75.20
2022-12-29T07:02:12.610Z,75.10
2022-12-29T07:04:39.551Z,75.00
2022-12-29T07:07:06.294Z,75.10
2022-12-29T07:09:33.111Z,74.30
2022-12-29T07:12:01.462Z,74.90
2022-12-29T07:14:28.246Z,74.90
2022-12-29T07:16:55.411Z,74.70
2022-12-29T07:19:22.193Z,74.70
2022-12-29T07:21:48.967Z,74.80
2022-12-29T07:24:15.710Z,74.80
2022-12-29T07:26:42.788Z,74.10
2022-12-29T07:29:09.573Z,74.80
2022-12-29T07:31:36.332Z,74.90
2022-12-29T07:34:03.154Z,74.80
2022-12-29T07:36:34.368Z,74.90
2022-12-29T07:39:02.232Z,74.80
2022-12-29T07:41:29.116Z,74.80
2022-12-29T07:43:55.949Z,74.30
2022-12-29T07:46:54.440Z,74.90
2022-12-29T07:49:09.540Z,74.90
2022-12-29T07:51:36.283Z,75.00
2022-12-29T07:54:03.192Z,75.00
2022-12-29T07:56:29.968Z,75.10
2022-12-29T07:58:56.707Z,75.10
2022-12-29T08:01:24.433Z,75.30
2022-12-29T08:03:56.850Z,75.30
2022-12-29T08:06:24.082Z,75.40
2022-12-29T08:08:50.880Z,75.30
2022-12-29T08:11:17.695Z,75.40
2022-12-29T08:13:44.490Z,75.30
2022-12-29T08:16:12.326Z,75.10
2022-12-29T08:18:39.278Z,75.30
2022-12-29T08:21:07.041Z,75.20
2022-12-29T08:23:34.280Z,75.30
2022-12-29T08:26:06.905Z,75.10
2022-12-29T08:28:34.300Z,74.90
2022-12-29T08:31:02.712Z,75.00
2022-12-29T08:33:30.867Z,74.90
2022-12-29T08:36:06.872Z,74.80
2022-12-29T08:38:34.176Z,74.60
2022-12-29T08:41:02.389Z,73.90
2022-12-29T08:43:30.086Z,74.70
2022-12-29T08:45:58.692Z,74.50
2022-12-29T08:48:26.550Z,74.50
2022-12-29T08:50:53.792Z,74.50
2022-12-29T08:53:20.711Z,74.50
2022-12-29T08:55:58.041Z,74.60
2022-12-29T08:58:29.377Z,74.50
2022-12-29T09:00:57.711Z,74.60
2022-12-29T09:06:17.812Z,74.50
2022-12-29T09:08:45.491Z,74.50
2022-12-29T09:11:19.490Z,74.50
2022-12-29T09:13:47.172Z,74.40
2022-12-29T09:16:14.193Z,75.00
2022-12-29T09:18:41.571Z,74.30
2022-12-29T09:21:08.771Z,74.00
2022-12-29T09:23:35.812Z,73.40
2022-12-29T09:26:03.768Z,74.10
2022-12-29T09:28:31.492Z,74.20
2022-12-29T09:30:59.135Z,74.20
2022-12-29T09:33:26.452Z,74.30
2022-12-29T09:35:56.971Z,74.20
2022-12-29T09:38:25.526Z,74.10
2022-12-29T09:40:59.723Z,74.20
2022-12-29T09:44:02.765Z,74.20
2022-12-29T09:46:39.063Z,73.90
2022-12-29T09:49:40.796Z,74.00
2022-12-29T09:52:30.535Z,74.00
2022-12-29T09:55:16.112Z,74.00
2022-12-29T09:57:59.879Z,74.10
2022-12-29T10:01:42.439Z,74.10
2022-12-29T10:07:27.890Z,73.60
2022-12-29T10:10:04.044Z,74.30
2022-12-29T10:12:59.692Z,73.70
2022-12-29T10:16:06.280Z,73.80
2022-12-29T10:19:07.208Z,73.70
2022-12-29T10:22:04.409Z,73.60
2022-12-29T10:24:35.783Z,73.60
2022-12-29T10:27:04.368Z,73.80
2022-12-29T10:29:43.341Z,73.70
2022-12-29T10:32:49.441Z,73.70
2022-12-29T10:35:27.685Z,73.60
2022-12-29T10:38:16.636Z,73.10
2022-12-29T10:41:06.563Z,73.70
2022-12-29T10:43:48.784Z,73.60
2022-12-29T10:46:22.059Z,73.60
2022-12-29T10:48:48.833Z,73.80
2022-12-29T10:51:25.468Z,73.80
2022-12-29T10:54:00.908Z,73.40
2022-12-29T10:56:45.928Z,73.50
2022-12-29T10:59:24.014Z,73.00
2022-12-29T11:02:47.240Z,73.20
2022-12-29T11:05:40.024Z,72.50
2022-12-29T11:08:18.851Z,73.10
2022-12-29T11:10:47.235Z,72.40
2022-12-29T11:13:25.803Z,72.70
2022-12-29T11:15:53.815Z,72.50
2022-12-29T11:18:32.284Z,72.50
2022-12-29T11:21:03.743Z,72.10
2022-12-29T11:23:37.414Z,72.00
2022-12-29T11:26:09.204Z,71.90
2022-12-29T11:28:36.313Z,71.60
2022-12-29T11:31:07.385Z,71.60
2022-12-29T11:33:39.704Z,71.50
2022-12-29T11:36:23.053Z,71.30
2022-12-29T11:38:54.374Z,70.90
2022-12-29T11:41:27.962Z,71.20
2022-12-29T11:44:00.831Z,70.50
2022-12-29T11:46:34.635Z,71.10
2022-12-29T11:49:02.664Z,71.20
2022-12-29T11:51:38.713Z,71.40
2022-12-29T11:54:06.979Z,71.40
2022-12-29T11:56:42.187Z,71.50
2022-12-29T11:59:42.238Z,71.60
2022-12-29T12:02:42.197Z,71.50
2022-12-29T12:05:41.160Z,72.00
2022-12-29T12:08:23.784Z,72.00
2022-12-29T12:11:04.664Z,72.10
2022-12-29T12:13:41.314Z,72.10
2022-12-29T12:16:19.359Z,72.30
2022-12-29T12:19:00.630Z,72.60
2022-12-29T12:21:45.866Z,72.80
2022-12-29T12:24:43.210Z,73.00
2022-12-29T12:27:44.662Z,73.30
2022-12-29T12:30:27.733Z,73.30
2022-12-29T12:33:04.428Z,73.70
2022-12-29T12:35:47.705Z,73.70
2022-12-29T12:38:40.598Z,74.20
2022-12-29T12:41:39.046Z,74.30
2022-12-29T12:44:24.483Z,74.70
2022-12-29T12:47:29.734Z,75.00
2022-12-29T12:50:25.518Z,75.70
2022-12-29T12:53:16.783Z,75.60
2022-12-29T12:56:08.796Z,75.50
2022-12-29T12:59:12.727Z,75.70
2022-12-29T13:01:58.393Z,76.00
2022-12-29T13:04:47.818Z,76.00
2022-12-29T13:07:31.460Z,76.30
2022-12-29T13:10:27.019Z,76.20
2022-12-29T13:13:13.609Z,76.40
2022-12-29T13:16:14.331Z,76.40
2022-12-29T13:19:25.313Z,76.40
2022-12-29T13:22:21.048Z,76.70
2022-12-29T13:25:23.955Z,76.90
2022-12-29T13:28:21.630Z,77.20
2022-12-29T13:31:06.671Z,76.40
2022-12-29T13:33:40.768Z,77.50
2022-12-29T13:36:36.737Z,76.70
2022-12-29T13:39:22.988Z,77.70
2022-12-29T13:41:54.076Z,77.60
2022-12-29T13:44:36.374Z,77.70
2022-12-29T13:47:32.308Z,78.00
2022-12-29T13:50:02.602Z,78.10
2022-12-29T13:52:38.524Z,78.10
2022-12-29T13:55:33.115Z,77.60
2022-12-29T13:58:24.725Z,78.70
2022-12-29T14:01:22.261Z,78.70
2022-12-29T14:04:00.877Z,79.10
2022-12-29T14:06:34.728Z,78.60
2022-12-29T14:09:08.009Z,79.00
2022-12-29T14:11:40.691Z,79.30
2022-12-29T14:14:24.458Z,79.30
2022-12-29T14:16:52.183Z,79.70
2022-12-29T14:19:32.033Z,79.30
2022-12-29T14:22:04.263Z,79.70
2022-12-29T14:24:34.126Z,79.50
2022-12-29T14:27:01.830Z,79.00
2022-12-29T14:29:31.537Z,79.50
2022-12-29T14:31:59.429Z,79.90
2022-12-29T14:34:31.018Z,79.80
2022-12-29T14:37:05.118Z,80.10
2022-12-29T14:39:43.198Z,79.70
2022-12-29T14:45:14.309Z,79.40
2022-12-29T14:47:50.540Z,80.60
2022-12-29T14:50:22.871Z,80.20
2022-12-29T14:53:04.338Z,80.10
2022-12-29T14:55:56.556Z,80.10
2022-12-29T14:58:33.422Z,80.40
2022-12-29T15:01:01.805Z,80.40
2022-12-29T15:03:43.862Z,80.30
2022-12-29T15:06:19.825Z,80.60
2022-12-29T15:09:05.109Z,80.40
2022-12-29T15:11:40.467Z,80.60
2022-12-29T15:14:28.886Z,80.60
2022-12-29T15:16:55.679Z,79.70
2022-12-29T15:19:27.793Z,80.30
2022-12-29T15:21:56.896Z,80.60
2022-12-29T15:24:24.680Z,80.60
2022-12-29T15:26:54.360Z,80.70
2022-12-29T15:29:40.708Z,81.00
2022-12-29T15:32:16.839Z,81.10
2022-12-29T15:34:50.241Z,80.90
2022-12-29T15:37:43.635Z,80.60
2022-12-29T15:40:33.157Z,80.70
2022-12-29T15:43:21.263Z,80.90
2022-12-29T15:45:49.722Z,80.60
2022-12-29T15:48:24.017Z,80.50
2022-12-29T15:50:52.368Z,80.90
2022-12-29T15:53:31.956Z,80.80
2022-12-29T15:56:10.731Z,81.20
2022-12-29T15:58:49.576Z,81.00
2022-12-29T16:01:23.602Z,81.30
2022-12-29T16:03:53.026Z,81.30
2022-12-29T16:06:34.791Z,81.30
2022-12-29T16:09:07.831Z,81.60
2022-12-29T16:11:54.160Z,81.50
2022-12-29T16:14:42.141Z,81.50
2022-12-29T16:17:16.719Z,81.40
2022-12-29T16:19:55.326Z,81.40
2022-12-29T16:22:47.220Z,81.40
2022-12-29T16:25:23.384Z,80.80
2022-12-29T16:27:51.997Z,81.30
2022-12-29T16:30:34.129Z,81.20
2022-12-29T16:33:05.076Z,81.40
2022-12-29T16:35:47.831Z,81.10
2022-12-29T16:38:23.700Z,81.20
2022-12-29T16:41:04.156Z,80.90
2022-12-29T16:43:42.665Z,80.70
2022-12-29T16:46:30.615Z,80.60
2022-12-29T16:48:58.553Z,80.30
2022-12-29T16:51:36.325Z,80.30
2022-12-29T16:54:04.959Z,79.90
2022-12-29T16:56:37.175Z,80.00
2022-12-29T16:59:19.290Z,79.80
2022-12-29T17:01:46.278Z,79.80
2022-12-29T17:04:14.914Z,79.70
2022-12-29T17:06:42.095Z,79.60
2022-12-29T17:09:38.208Z,79.50
2022-12-29T17:12:11.530Z,79.00
2022-12-29T17:14:45.367Z,79.10
2022-12-29T17:17:19.226Z,78.70
2022-12-29T17:19:54.419Z,78.40
2022-12-29T17:22:28.751Z,77.80
2022-12-29T17:24:58.957Z,78.20
2022-12-29T17:27:37.758Z,78.20
2022-12-29T17:30:18.594Z,78.10
2022-12-29T17:32:54.343Z,77.40
2022-12-29T17:35:23.041Z,77.90
2022-12-29T17:37:50.984Z,77.80
2022-12-29T17:40:25.845Z,78.30
2022-12-29T17:42:58.485Z,77.40
2022-12-29T17:45:29.251Z,77.80
2022-12-29T17:47:57.210Z,76.90
2022-12-29T17:50:26.948Z,77.00
2022-12-29T17:53:06.831Z,76.60
2022-12-29T17:55:38.147Z,76.10
2022-12-29T17:58:34.901Z,76.50
2022-12-29T18:01:03.695Z,75.70
2022-12-29T18:03:40.694Z,76.10
2022-12-29T18:06:11.389Z,75.90
2022-12-29T18:08:40.753Z,75.60
2022-12-29T18:11:23.825Z,75.60
2022-12-29T18:13:52.258Z,74.90
2022-12-29T18:16:22.405Z,75.10
2022-12-29T18:18:49.180Z,74.80
2022-12-29T18:21:22.513Z,74.80
2022-12-29T18:23:50.435Z,74.60
2022-12-29T18:26:27.716Z,74.60
2022-12-29T18:28:57.104Z,74.50
2022-12-29T18:31:29.137Z,74.50
2022-12-29T18:33:58.669Z,74.50
2022-12-29T18:36:26.576Z,74.50
2022-12-29T18:38:54.705Z,74.50
2022-12-29T18:41:25.481Z,74.60
2022-12-29T18:43:52.755Z,73.70
2022-12-29T18:48:51.820Z,74.20
2022-12-29T18:51:26.340Z,74.90
2022-12-29T18:53:54.305Z,74.80
2022-12-29T18:56:23.308Z,74.20
2022-12-29T18:58:51.572Z,74.70
2022-12-29T19:01:27.833Z,74.80
2022-12-29T19:03:55.283Z,74.40
2022-12-29T19:06:22.062Z,74.60
2022-12-29T19:08:48.885Z,74.50
2022-12-29T19:11:15.850Z,74.50
2022-12-29T19:13:42.596Z,74.50
2022-12-29T19:16:20.521Z,74.30
2022-12-29T19:19:00.933Z,73.90
2022-12-29T19:21:34.370Z,74.10
2022-12-29T19:24:01.155Z,74.00
2022-12-29T19:26:38.324Z,73.90
2022-12-29T19:29:13.385Z,73.70
2022-12-29T19:31:40.225Z,73.60
2022-12-29T19:34:07.263Z,73.70
2022-12-29T19:36:34.085Z,73.80
2022-12-29T19:39:00.975Z,73.70
2022-12-29T19:41:27.770Z,73.00
2022-12-29T19:43:54.491Z,73.90
2022-12-29T19:46:22.379Z,73.90
2022-12-29T19:48:49.165Z,74.00
2022-12-29T19:51:17.510Z,73.40
2022-12-29T19:53:46.002Z,74.00
2022-12-29T19:56:14.605Z,74.20
2022-12-29T19:58:46.862Z,74.40
2022-12-29T20:01:18.245Z,74.50
2022-12-29T20:06:13.035Z,74.00
2022-12-29T20:08:41.049Z,74.90
2022-12-29T20:11:17.595Z,75.00
2022-12-29T20:13:45.244Z,75.10
2022-12-29T20:16:16.856Z,75.20
2022-12-29T20:18:44.096Z,75.30
2022-12-29T20:21:21.198Z,75.40
2022-12-29T20:23:50.061Z,75.50
2022-12-29T20:26:21.589Z,75.50
2022-12-29T20:28:49.196Z,75.50
2022-12-29T20:31:30.465Z,75.60
2022-12-29T20:33:57.565Z,75.50
2022-12-29T20:36:31.951Z,75.60
2022-12-29T20:39:01.310Z,75.60
2022-12-29T20:41:30.941Z,75.60
2022-12-29T20:43:58.484Z,75.60
2022-12-29T20:46:32.854Z,75.60
2022-12-29T20:49:02.203Z,75.50
2022-12-29T20:54:18.050Z,74.70
2022-12-29T20:56:45.829Z,75.30
2022-12-29T20:59:29.376Z,75.30
2022-12-29T21:01:58.179Z,75.30
2022-12-29T21:04:25.535Z,75.10
2022-12-29T21:06:52.755Z,75.10
2022-12-29T21:09:20.378Z,75.00
2022-12-29T21:11:47.969Z,75.00
2022-12-29T21:14:14.773Z,74.90
2022-12-29T21:16:41.573Z,74.80
2022-12-29T21:19:08.321Z,74.80
2022-12-29T21:21:35.103Z,74.80
2022-12-29T21:24:05.801Z,74.80
2022-12-29T21:26:33.848Z,74.80
2022-12-29T21:29:03.619Z,74.70
2022-12-29T21:31:35.621Z,74.70
2022-12-29T21:34:04.721Z,74.60
2022-12-29T21:36:32.980Z,74.70
2022-12-29T21:39:00.592Z,74.60
2022-12-29T21:41:27.439Z,75.30
2022-12-29T21:44:12.709Z,74.50
2022-12-29T21:46:42.031Z,73.60
2022-12-29T21:49:08.976Z,74.20
2022-12-29T21:51:52.109Z,74.10
2022-12-29T21:54:44.365Z,73.90
2022-12-29T21:57:33.409Z,73.80
2022-12-29T22:00:19.073Z,73.60
2022-12-29T22:03:04.857Z,73.40
2022-12-29T22:05:50.358Z,73.20
2022-12-29T22:08:35.778Z,73.10
2022-12-29T22:11:27.042Z,73.20
2022-12-29T22:13:56.225Z,72.80
2022-12-29T22:16:24.910Z,73.00
2022-12-29T22:18:52.268Z,73.00
2022-12-29T22:21:20.031Z,73.00
2022-12-29T22:23:46.758Z,73.00
2022-12-29T22:26:15.127Z,73.00
2022-12-29T22:28:46.002Z,73.00
2022-12-29T22:31:27.458Z,73.10
2022-12-29T22:33:56.990Z,72.80
2022-12-29T22:36:24.797Z,72.90
2022-12-29T22:38:51.538Z,73.00
2022-12-29T22:41:18.720Z,73.10
2022-12-29T22:43:45.475Z,73.20
2022-12-29T22:46:12.480Z,73.20
2022-12-29T22:48:39.599Z,73.30
2022-12-29T22:51:06.912Z,73.30
2022-12-29T22:53:33.693Z,73.40
2022-12-29T22:56:14.997Z,73.40
2022-12-29T22:58:44.872Z,73.20
2022-12-29T23:01:15.110Z,73.40
2022-12-29T23:03:42.895Z,73.40
2022-12-29T23:06:14.479Z,73.50
2022-12-29T23:08:41.316Z,73.40
2022-12-29T23:11:11.836Z,73.60
2022-12-29T23:13:40.969Z,73.60
2022-12-29T23:16:08.099Z,73.50
2022-12-29T23:18:34.991Z,73.70
2022-12-29T23:21:01.886Z,73.70
2022-12-29T23:23:49.577Z,73.60
2022-12-29T23:26:18.826Z,73.50
2022-12-29T23:28:46.061Z,73.40
2022-12-29T23:31:14.392Z,73.20
2022-12-29T23:33:41.410Z,73.20
2022-12-29T23:36:08.934Z,73.20
2022-12-29T23:38:36.095Z,73.20
2022-12-29T23:41:02.824Z,73.20
2022-12-29T23:43:29.662Z,72.60
2022-12-29T23:45:56.378Z,73.20
2022-12-29T23:48:23.242Z,73.00
2022-12-29T23:50:49.981Z,73.00
2022-12-29T23:53:16.721Z,72.90
2022-12-29T23:55:44.625Z,72.80
2022-12-29T23:58:11.463Z,72.60
